Impacts TAF Board
For situational awareness. Not to be used for flight planning purposes.
IDs:

KPBI - Palm Beach Intl, FL, US

Issued at 1507 UTC 03 Dec 2021
Updated at 1602 UTC 03 Dec 2021
Potential Impact None Slight Moderate High
Time1553Z 03/17Z 03/18Z 03/19Z 03/20Z 03/21Z 03/22Z 03/23Z 04/00Z 04/01Z 04/02Z 04/03Z 04/04Z 04/05Z>>
Type OBS PRVL PRVL PRVL PRVL PRVL PRVL PRVL PRVL PRVL PRVL PRVL PRVL PRVL
VIS 10 >6 >6 >6 >6 >6 >6 >6 >6 >6 >6 >6 >6 >6
CIG -- -- -- -- -- -- -- -- -- -- -- -- -- --
Cover SCT SCT SCT SCT SCT SCT SCT SCT FEW FEW FEW FEW FEW FEW
FltCat VFR VFR VFR VFR VFR VFR VFR VFR VFR VFR VFR VFR VFR VFR
WX -- -- -- -- -- -- -- -- -- -- -- -- -- --
WDir 350 50 50 50 50 50 50 50 VRB VRB VRB VRB VRB VRB
WSpd 8 8 8 8 8 8 8 8 2 2 2 2 2 2
WGst -- -- -- -- -- -- -- -- -- -- -- -- -- --
WSHgt -- -- -- -- -- -- -- -- -- -- -- -- -- --
WSDir -- -- -- -- -- -- -- -- -- -- -- -- -- --
WSSpd -- -- -- -- -- -- -- -- -- -- -- -- -- --
Raw TAF
KPBI 031507Z 0315/0412 35009KT P6SM SCT220
  FM031700 05008KT P6SM FEW100 SCT250
  FM040000 VRB02KT P6SM FEW035


Raw METAR
KPBI 031553Z 35008KT 10SM SCT210 24/14 A3014 RMK AO2 SLP206 T02390139
KPBI 031453Z 35009KT 10SM SCT220 22/12 A3015 RMK AO2 SLP207 T02220117 51016 $
KPBI 031353Z 34009KT 10SM SCT230 19/11 A3013 RMK AO2 SLP203 T01890106 $

METAR Board
Radar Display
Forecast Discussion
For situational awareness. Not to be used for flight planning purposes.